createdAt,value
2018-10-12T00:01:00.595Z,19.23
2018-10-12T00:03:29.299Z,19.27
2018-10-12T00:05:58.239Z,19.28
2018-10-12T00:08:26.812Z,19.25
2018-10-12T00:10:56.794Z,19.15
2018-10-12T00:13:25.824Z,19.09
2018-10-12T00:15:54.395Z,19.10
2018-10-12T00:18:23.808Z,19.15
2018-10-12T00:20:52.683Z,19.15
2018-10-12T00:23:21.291Z,19.11
2018-10-12T00:25:49.893Z,19.03
2018-10-12T00:28:18.668Z,19.07
2018-10-12T00:30:47.331Z,19.05
2018-10-12T00:33:16.032Z,19.01
2018-10-12T00:35:44.834Z,19.00
2018-10-12T00:38:13.418Z,18.97
2018-10-12T00:40:42.248Z,18.99
2018-10-12T00:43:10.929Z,18.99
2018-10-12T00:45:39.639Z,18.84
2018-10-12T00:48:08.700Z,18.81
2018-10-12T00:50:37.276Z,18.72
2018-10-12T00:53:05.933Z,18.61
2018-10-12T00:55:35.228Z,18.52
2018-10-12T00:58:03.808Z,18.48
2018-10-12T01:00:32.400Z,18.58
2018-10-12T01:03:01.096Z,18.64
2018-10-12T01:05:30.087Z,18.62
2018-10-12T01:07:59.676Z,18.68
2018-10-12T01:10:28.503Z,18.76
2018-10-12T01:12:57.117Z,18.80
2018-10-12T01:15:25.721Z,18.76
2018-10-12T01:17:54.699Z,18.80
2018-10-12T01:20:23.327Z,18.84
2018-10-12T01:22:52.084Z,18.83
2018-10-12T01:25:20.776Z,18.85
2018-10-12T01:27:49.404Z,18.84
2018-10-12T01:30:18.042Z,18.82
2018-10-12T01:32:52.079Z,18.82
2018-10-12T01:35:20.671Z,18.78
2018-10-12T01:37:49.239Z,18.71
2018-10-12T01:40:18.378Z,18.63
2018-10-12T01:42:46.960Z,18.60
2018-10-12T01:45:15.543Z,18.56
2018-10-12T01:47:44.175Z,18.52
2018-10-12T01:50:12.755Z,18.46
2018-10-12T01:52:41.675Z,18.40
2018-10-12T01:55:10.619Z,18.38
2018-10-12T01:57:39.314Z,18.35
2018-10-12T02:00:08.796Z,18.30
2018-10-12T02:02:37.876Z,18.28
2018-10-12T02:05:06.863Z,18.29
2018-10-12T02:07:36.172Z,18.26
2018-10-12T02:10:04.968Z,18.23
2018-10-12T02:12:33.559Z,18.19
2018-10-12T02:15:02.140Z,18.17
2018-10-12T02:17:30.925Z,18.14
2018-10-12T02:19:59.520Z,18.11
2018-10-12T02:22:28.144Z,18.08
2018-10-12T02:24:56.803Z,18.07
2018-10-12T02:27:25.424Z,18.07
2018-10-12T02:29:54.033Z,18.04
2018-10-12T02:32:22.721Z,17.99
2018-10-12T02:34:51.324Z,17.97
2018-10-12T02:37:20.292Z,17.96
2018-10-12T02:39:48.947Z,17.96
2018-10-12T02:42:17.563Z,17.92
2018-10-12T02:44:46.144Z,17.91
2018-10-12T02:47:14.871Z,17.92
2018-10-12T02:49:43.448Z,17.93
2018-10-12T02:52:12.021Z,17.92
2018-10-12T02:54:41.220Z,17.89
2018-10-12T02:57:10.280Z,17.85
2018-10-12T02:59:38.855Z,17.83
2018-10-12T03:02:07.755Z,17.77
2018-10-12T03:04:36.353Z,17.81
2018-10-12T03:07:04.979Z,17.77
2018-10-12T03:09:33.887Z,17.77
2018-10-12T03:12:02.492Z,17.73
2018-10-12T03:14:31.453Z,17.72
2018-10-12T03:17:00.548Z,17.65
2018-10-12T03:19:29.168Z,17.64
2018-10-12T03:21:58.154Z,17.59
2018-10-12T03:24:26.770Z,17.56
2018-10-12T03:26:55.360Z,17.55
2018-10-12T03:29:24.795Z,17.55
2018-10-12T03:31:53.447Z,17.62
2018-10-12T03:34:22.140Z,17.60
2018-10-12T03:36:51.213Z,17.62
2018-10-12T03:39:20.059Z,17.64
2018-10-12T03:41:48.699Z,17.68
2018-10-12T03:44:17.300Z,17.69
2018-10-12T03:46:46.443Z,17.70
2018-10-12T03:49:15.396Z,17.68
2018-10-12T03:51:44.370Z,17.65
2018-10-12T03:54:13.376Z,17.62
2018-10-12T03:56:42.008Z,17.57
2018-10-12T03:59:10.824Z,17.55
2018-10-12T04:01:39.525Z,17.52
2018-10-12T04:04:08.142Z,17.49
2018-10-12T04:06:36.713Z,17.46
2018-10-12T04:09:07.187Z,17.46
2018-10-12T04:11:35.801Z,17.46
2018-10-12T04:14:04.430Z,17.47
2018-10-12T04:16:33.143Z,17.46
2018-10-12T04:19:01.871Z,17.45
2018-10-12T04:21:30.951Z,17.42
2018-10-12T04:23:59.572Z,17.41
2018-10-12T04:26:28.168Z,17.44
2018-10-12T04:28:56.769Z,17.40
2018-10-12T04:31:25.413Z,17.37
2018-10-12T04:33:54.173Z,17.32
2018-10-12T04:36:22.850Z,17.35
2018-10-12T04:39:02.664Z,17.37
2018-10-12T04:41:32.451Z,17.40
2018-10-12T04:44:02.564Z,17.43
2018-10-12T04:46:36.645Z,17.42
2018-10-12T04:49:07.312Z,17.38
2018-10-12T04:51:40.795Z,17.32
2018-10-12T04:54:09.587Z,17.29
2018-10-12T04:56:38.192Z,17.25
2018-10-12T04:59:07.212Z,17.24
2018-10-12T05:01:36.171Z,17.24
2018-10-12T05:04:05.220Z,17.24
2018-10-12T05:06:33.820Z,17.24
2018-10-12T05:09:02.651Z,17.22
2018-10-12T05:11:31.228Z,17.15
2018-10-12T05:13:59.820Z,17.14
2018-10-12T05:16:28.552Z,17.10
2018-10-12T05:18:57.152Z,17.08
2018-10-12T05:21:25.756Z,17.08
2018-10-12T05:23:54.483Z,17.03
2018-10-12T05:26:23.080Z,17.03
2018-10-12T05:28:51.661Z,17.01
2018-10-12T05:31:20.326Z,16.99
2018-10-12T05:33:49.288Z,17.01
2018-10-12T05:36:17.863Z,17.01
2018-10-12T05:38:46.671Z,16.97
2018-10-12T05:41:15.297Z,16.94
2018-10-12T05:43:43.983Z,16.93
2018-10-12T05:46:12.519Z,16.89
2018-10-12T05:48:52.879Z,16.88
2018-10-12T05:51:21.818Z,16.85
2018-10-12T05:53:51.575Z,16.84
2018-10-12T05:56:25.380Z,16.89
2018-10-12T05:58:54.446Z,16.91
2018-10-12T06:01:23.059Z,16.91
2018-10-12T06:03:51.758Z,16.90
2018-10-12T06:06:20.543Z,16.91
2018-10-12T06:08:49.431Z,16.95
2018-10-12T06:11:18.179Z,17.00
2018-10-12T06:13:46.747Z,17.02
2018-10-12T06:16:15.367Z,17.00
2018-10-12T06:18:44.464Z,17.03
2018-10-12T06:21:13.126Z,16.98
2018-10-12T06:23:42.064Z,17.00
2018-10-12T06:26:10.775Z,16.97
2018-10-12T06:28:39.380Z,16.99
2018-10-12T06:31:09.020Z,17.04
2018-10-12T06:33:38.328Z,17.09
2018-10-12T06:36:07.326Z,17.19
2018-10-12T06:38:35.904Z,17.23
2018-10-12T06:41:04.722Z,17.29
2018-10-12T06:43:33.680Z,17.36
2018-10-12T06:46:02.291Z,17.39
2018-10-12T06:48:30.900Z,17.47
2018-10-12T06:50:59.501Z,17.54
2018-10-12T06:53:28.084Z,17.59
2018-10-12T06:55:56.959Z,17.70
2018-10-12T06:58:25.556Z,17.78
2018-10-12T07:00:54.148Z,17.87
2018-10-12T07:03:23.064Z,18.11
2018-10-12T07:05:51.440Z,18.34
2018-10-12T07:08:20.008Z,18.63
2018-10-12T07:10:48.659Z,18.92
2018-10-12T07:13:17.799Z,19.23
2018-10-12T07:15:46.839Z,19.59
2018-10-12T07:18:15.432Z,19.74
2018-10-12T07:20:45.232Z,20.04
2018-10-12T07:23:13.812Z,20.25
2018-10-12T07:25:42.428Z,20.45
2018-10-12T07:28:10.992Z,20.50
2018-10-12T07:30:39.712Z,20.65
2018-10-12T07:33:08.741Z,20.65
2018-10-12T07:35:37.356Z,20.58
2018-10-12T07:38:05.944Z,20.55
2018-10-12T07:40:34.940Z,20.62
2018-10-12T07:43:03.568Z,20.67
2018-10-12T07:45:32.142Z,20.78
2018-10-12T07:48:00.865Z,20.89
2018-10-12T07:50:29.480Z,20.99
2018-10-12T07:52:58.063Z,21.09
2018-10-12T07:55:27.016Z,21.27
2018-10-12T07:57:55.596Z,21.46
2018-10-12T08:00:24.284Z,21.60
2018-10-12T08:02:52.955Z,21.69
2018-10-12T08:05:22.460Z,21.79
2018-10-12T08:07:51.615Z,21.99
2018-10-12T08:10:20.253Z,22.27
2018-10-12T08:12:48.876Z,22.42
2018-10-12T08:15:17.552Z,22.58
2018-10-12T08:17:46.334Z,22.83
2018-10-12T08:20:15.060Z,23.04
2018-10-12T08:22:43.636Z,23.22
2018-10-12T08:25:12.316Z,23.42
2018-10-12T08:27:40.924Z,23.64
2018-10-12T08:30:09.561Z,23.84
2018-10-12T08:32:38.403Z,24.02
2018-10-12T08:35:07.173Z,24.25
2018-10-12T08:37:35.772Z,24.36
2018-10-12T08:40:04.540Z,24.55
2018-10-12T08:42:33.126Z,24.74
2018-10-12T08:45:01.743Z,24.91
2018-10-12T08:47:30.763Z,25.04
2018-10-12T08:49:59.332Z,25.22
2018-10-12T08:52:28.262Z,25.30
2018-10-12T08:54:56.865Z,25.48
2018-10-12T08:57:25.473Z,25.58
2018-10-12T08:59:54.083Z,25.75
2018-10-12T09:02:22.707Z,25.92
2018-10-12T09:04:51.297Z,26.15
2018-10-12T09:07:20.434Z,26.38
2018-10-12T09:09:50.029Z,26.58
2018-10-12T09:12:18.614Z,26.73
2018-10-12T09:14:47.588Z,26.95
2018-10-12T09:17:16.382Z,27.10
2018-10-12T09:19:45.028Z,27.36
2018-10-12T09:22:13.592Z,27.47
2018-10-12T09:24:42.623Z,27.52
2018-10-12T09:27:11.279Z,27.69
2018-10-12T09:29:39.943Z,27.90
2018-10-12T09:32:08.635Z,27.96
2018-10-12T09:34:37.744Z,27.80
2018-10-12T09:37:06.352Z,28.15
2018-10-12T09:39:34.975Z,28.50
2018-10-12T09:42:03.584Z,29.02
2018-10-12T09:44:32.254Z,29.55
2018-10-12T09:47:00.968Z,30.27
2018-10-12T09:49:29.636Z,30.70
2018-10-12T09:51:58.247Z,30.58
2018-10-12T09:54:27.259Z,31.71
2018-10-12T09:57:01.000Z,32.24
2018-10-12T09:59:29.712Z,32.58
2018-10-12T10:02:03.629Z,32.83
2018-10-12T10:04:33.886Z,32.83
2018-10-12T10:07:03.802Z,33.39
2018-10-12T10:09:32.447Z,33.53
2018-10-12T10:12:01.980Z,33.60
2018-10-12T10:14:30.608Z,34.00
2018-10-12T10:16:59.211Z,34.08
2018-10-12T10:19:27.924Z,34.43
2018-10-12T10:21:56.545Z,34.56
2018-10-12T10:24:26.400Z,34.48
2018-10-12T10:26:55.099Z,34.50
2018-10-12T10:29:23.778Z,34.35
2018-10-12T10:31:52.284Z,33.97
2018-10-12T10:34:20.885Z,33.76
2018-10-12T10:36:49.485Z,33.62
2018-10-12T10:39:18.051Z,33.48
2018-10-12T10:41:46.652Z,33.55
2018-10-12T10:44:15.268Z,33.38
2018-10-12T10:46:43.880Z,33.09
2018-10-12T10:49:12.515Z,32.74
2018-10-12T10:51:41.495Z,32.51
2018-10-12T10:54:10.106Z,32.07
2018-10-12T10:56:38.971Z,32.11
2018-10-12T10:59:08.635Z,31.88
2018-10-12T11:01:37.215Z,31.51
2018-10-12T11:04:06.297Z,31.36
2018-10-12T11:06:35.275Z,31.81
2018-10-12T11:09:05.057Z,32.90
2018-10-12T11:11:34.152Z,34.01
2018-10-12T11:14:02.713Z,35.42
2018-10-12T11:16:31.340Z,36.67
2018-10-12T11:18:59.977Z,37.85
2018-10-12T11:21:28.703Z,39.29
2018-10-12T11:23:57.290Z,40.42
2018-10-12T11:26:25.975Z,40.68
2018-10-12T11:28:54.884Z,40.92
2018-10-12T11:31:23.450Z,42.14
2018-10-12T11:33:53.008Z,42.71
2018-10-12T11:36:21.715Z,43.66
2018-10-12T11:38:50.604Z,43.77
2018-10-12T11:41:19.303Z,44.06
2018-10-12T11:43:47.892Z,44.55
2018-10-12T11:46:16.483Z,45.32
2018-10-12T11:48:45.085Z,45.52
2018-10-12T11:51:13.680Z,45.87
2018-10-12T11:53:42.272Z,46.14
2018-10-12T11:56:10.925Z,46.14
2018-10-12T11:58:39.536Z,43.26
2018-10-12T12:01:08.414Z,41.82
2018-10-12T12:03:37.080Z,39.15
2018-10-12T12:06:05.701Z,36.74
2018-10-12T12:08:34.637Z,34.41
2018-10-12T12:11:03.749Z,33.19
2018-10-12T12:13:32.371Z,32.26
2018-10-12T12:16:01.433Z,31.86
2018-10-12T12:18:30.311Z,31.34
2018-10-12T12:20:59.794Z,30.91
2018-10-12T12:23:28.702Z,30.69
2018-10-12T12:25:57.696Z,30.06
2018-10-12T12:28:26.462Z,29.92
2018-10-12T12:30:55.071Z,29.75
2018-10-12T12:33:24.604Z,29.65
2018-10-12T12:35:54.288Z,29.61
2018-10-12T12:38:22.869Z,29.56
2018-10-12T12:40:51.810Z,29.56
2018-10-12T12:43:20.445Z,29.42
2018-10-12T12:45:49.308Z,29.31
2018-10-12T12:48:18.721Z,29.23
2018-10-12T12:50:47.323Z,29.24
2018-10-12T12:53:16.493Z,29.18
2018-10-12T12:55:45.144Z,29.16
2018-10-12T12:58:13.755Z,29.10
2018-10-12T13:00:42.801Z,28.94
2018-10-12T13:03:11.665Z,28.83
2018-10-12T13:05:40.617Z,28.87
2018-10-12T13:08:09.356Z,28.65
2018-10-12T13:10:38.110Z,28.70
2018-10-12T13:13:06.900Z,28.67
2018-10-12T13:15:35.684Z,28.42
2018-10-12T13:18:04.767Z,28.50
2018-10-12T13:20:34.319Z,28.47
2018-10-12T13:23:03.011Z,28.53
2018-10-12T13:25:31.924Z,28.43
2018-10-12T13:28:00.964Z,28.44
2018-10-12T13:30:29.746Z,28.49
2018-10-12T13:32:59.583Z,28.51
2018-10-12T13:35:28.184Z,28.32
2018-10-12T13:37:56.940Z,28.22
2018-10-12T13:40:26.227Z,28.10
2018-10-12T13:42:55.129Z,28.10
2018-10-12T13:45:24.125Z,28.18
2018-10-12T13:47:53.099Z,28.23
2018-10-12T13:50:22.348Z,28.25
2018-10-12T13:52:51.650Z,28.35
2018-10-12T13:55:21.267Z,28.34
2018-10-12T13:57:50.383Z,28.35
2018-10-12T14:00:19.206Z,28.35
2018-10-12T14:02:48.424Z,28.23
2018-10-12T14:05:17.345Z,28.16
2018-10-12T14:07:46.933Z,28.17
2018-10-12T14:10:16.135Z,28.18
2018-10-12T14:12:45.568Z,28.20
2018-10-12T14:15:15.273Z,28.06
2018-10-12T14:17:44.162Z,28.04
2018-10-12T14:20:13.144Z,27.94
2018-10-12T14:22:41.876Z,27.98
2018-10-12T14:25:10.868Z,27.95
2018-10-12T14:27:39.451Z,28.07
2018-10-12T14:30:08.212Z,28.19
2018-10-12T14:32:36.824Z,28.29
2018-10-12T14:35:05.879Z,28.28
2018-10-12T14:37:34.502Z,28.18
2018-10-12T14:40:03.895Z,27.97
2018-10-12T14:42:32.929Z,27.97
2018-10-12T14:45:01.681Z,27.85
2018-10-12T14:47:30.288Z,27.87
2018-10-12T14:49:58.881Z,27.86
2018-10-12T14:52:28.505Z,27.95
2018-10-12T14:54:57.076Z,27.91
2018-10-12T14:57:25.684Z,27.83
2018-10-12T14:59:54.392Z,27.81
2018-10-12T15:02:23.033Z,27.85
2018-10-12T15:04:51.637Z,27.85
2018-10-12T15:07:20.332Z,27.81
2018-10-12T15:09:48.939Z,27.77
2018-10-12T15:12:17.583Z,27.76
2018-10-12T15:14:57.532Z,27.74
2018-10-12T15:17:26.675Z,27.70
2018-10-12T15:19:55.306Z,27.65
2018-10-12T15:22:23.927Z,27.63
2018-10-12T15:24:52.507Z,27.70
2018-10-12T15:27:21.102Z,27.66
2018-10-12T15:29:49.791Z,27.58
2018-10-12T15:32:18.400Z,27.60
2018-10-12T15:34:47.003Z,27.49
2018-10-12T15:37:15.724Z,27.49
2018-10-12T15:39:44.292Z,27.54
2018-10-12T15:42:12.919Z,27.48
2018-10-12T15:44:41.567Z,27.49
2018-10-12T15:47:11.958Z,27.47
2018-10-12T15:49:41.043Z,27.39
2018-10-12T15:52:09.708Z,27.30
2018-10-12T15:54:38.310Z,27.21
2018-10-12T15:57:07.000Z,27.11
2018-10-12T15:59:36.346Z,27.02
2018-10-12T16:02:04.960Z,26.96
2018-10-12T16:04:33.939Z,26.89
2018-10-12T16:07:02.593Z,26.83
2018-10-12T16:09:31.243Z,26.78
2018-10-12T16:12:00.386Z,26.72
2018-10-12T16:14:28.989Z,26.67
2018-10-12T16:16:57.672Z,26.58
2018-10-12T16:19:26.303Z,26.53
2018-10-12T16:21:55.460Z,26.45
2018-10-12T16:24:24.120Z,26.37
2018-10-12T16:26:52.804Z,26.34
2018-10-12T16:29:21.408Z,26.28
2018-10-12T16:31:49.980Z,26.22
2018-10-12T16:34:18.675Z,26.16
2018-10-12T16:36:47.318Z,26.07
2018-10-12T16:39:15.929Z,26.00
2018-10-12T16:41:45.465Z,25.95
2018-10-12T16:44:14.042Z,25.87
2018-10-12T16:46:42.783Z,25.81
2018-10-12T16:49:11.471Z,25.77
2018-10-12T16:51:40.051Z,25.74
2018-10-12T16:54:08.652Z,25.71
2018-10-12T16:56:37.358Z,25.65
2018-10-12T16:59:05.936Z,25.59
2018-10-12T17:01:34.500Z,25.56
2018-10-12T17:04:03.230Z,25.53
2018-10-12T17:06:31.956Z,25.43
2018-10-12T17:09:00.531Z,25.24
2018-10-12T17:11:32.327Z,25.08
2018-10-12T17:14:01.233Z,24.96
2018-10-12T17:16:29.923Z,24.82
2018-10-12T17:18:58.729Z,24.71
2018-10-12T17:21:27.920Z,24.62
2018-10-12T17:23:56.564Z,24.51
2018-10-12T17:26:25.196Z,24.40
2018-10-12T17:28:53.783Z,24.38
2018-10-12T17:31:22.432Z,24.35
2018-10-12T17:33:51.888Z,24.14
2018-10-12T17:36:20.799Z,24.06
2018-10-12T17:38:50.439Z,24.06
2018-10-12T17:41:21.210Z,24.00
2018-10-12T17:43:50.289Z,23.91
2018-10-12T17:46:19.391Z,23.88
2018-10-12T17:48:48.705Z,23.76
2018-10-12T17:51:17.678Z,23.83
2018-10-12T17:53:46.904Z,23.74
2018-10-12T17:56:16.180Z,23.75
2018-10-12T17:58:45.435Z,23.65
2018-10-12T18:01:14.063Z,23.61
2018-10-12T18:03:43.476Z,23.52
2018-10-12T18:06:12.935Z,23.42
2018-10-12T18:08:42.393Z,23.33
2018-10-12T18:11:11.902Z,23.37
2018-10-12T18:13:40.945Z,23.19
2018-10-12T18:16:10.502Z,23.19
2018-10-12T18:18:39.215Z,23.19
2018-10-12T18:21:08.452Z,23.04
2018-10-12T18:23:37.792Z,23.04
2018-10-12T18:26:07.244Z,22.92
2018-10-12T18:28:36.769Z,22.85
2018-10-12T18:31:06.283Z,22.74
2018-10-12T18:33:35.674Z,22.73
2018-10-12T18:36:05.142Z,22.81
2018-10-12T18:38:34.470Z,22.75
2018-10-12T18:41:03.857Z,22.72
2018-10-12T18:43:33.092Z,22.66
2018-10-12T18:46:02.237Z,22.54
2018-10-12T18:48:31.332Z,22.53
2018-10-12T18:51:00.448Z,22.49
2018-10-12T18:53:29.588Z,22.48
2018-10-12T18:55:58.582Z,22.27
2018-10-12T18:58:27.830Z,22.27
2018-10-12T19:00:57.626Z,22.09
2018-10-12T19:03:26.412Z,22.08
2018-10-12T19:05:55.008Z,22.02
2018-10-12T19:08:23.992Z,21.90
2018-10-12T19:10:53.336Z,21.87
2018-10-12T19:13:22.197Z,21.69
2018-10-12T19:15:51.117Z,21.61
2018-10-12T19:18:19.720Z,21.66
2018-10-12T19:20:48.298Z,21.65
2018-10-12T19:23:16.860Z,21.53
2018-10-12T19:25:45.600Z,21.31
2018-10-12T19:28:14.180Z,21.24
2018-10-12T19:30:42.757Z,21.33
2018-10-12T19:33:11.442Z,21.19
2018-10-12T19:35:40.383Z,21.06
2018-10-12T19:38:09.009Z,21.12
2018-10-12T19:40:37.588Z,21.03
2018-10-12T19:43:06.569Z,21.13
2018-10-12T19:45:35.168Z,21.09
2018-10-12T19:48:03.792Z,21.09
2018-10-12T19:50:32.368Z,21.10
2018-10-12T19:53:01.009Z,21.03
2018-10-12T19:55:29.760Z,21.08
2018-10-12T19:57:58.351Z,20.99
2018-10-12T20:00:26.960Z,20.80
2018-10-12T20:02:55.652Z,20.60
2018-10-12T20:05:24.259Z,20.46
2018-10-12T20:07:52.873Z,20.40
2018-10-12T20:10:21.601Z,20.28
2018-10-12T20:12:50.269Z,20.39
2018-10-12T20:15:19.119Z,20.33
2018-10-12T20:17:47.874Z,20.19
2018-10-12T20:20:16.431Z,20.17
2018-10-12T20:22:45.025Z,20.01
2018-10-12T20:25:13.752Z,20.05
2018-10-12T20:27:42.607Z,20.05
2018-10-12T20:30:11.184Z,20.03
2018-10-12T20:32:39.868Z,19.94
2018-10-12T20:35:08.467Z,19.94
2018-10-12T20:37:37.082Z,19.81
2018-10-12T20:40:05.767Z,19.67
2018-10-12T20:42:34.327Z,19.64
2018-10-12T20:45:03.831Z,19.64
2018-10-12T20:47:32.824Z,19.62
2018-10-12T20:50:01.452Z,19.55
2018-10-12T20:52:30.110Z,19.55
2018-10-12T20:54:58.863Z,19.61
2018-10-12T20:57:27.501Z,19.47
2018-10-12T20:59:56.247Z,19.50
2018-10-12T21:02:25.248Z,19.45
2018-10-12T21:04:53.908Z,19.51
2018-10-12T21:07:22.548Z,19.40
2018-10-12T21:09:51.875Z,19.47
2018-10-12T21:12:20.557Z,19.48
2018-10-12T21:14:49.652Z,19.46
2018-10-12T21:17:18.372Z,19.52
2018-10-12T21:19:47.124Z,19.49
2018-10-12T21:22:15.739Z,19.54
2018-10-12T21:24:44.377Z,19.40
2018-10-12T21:27:13.036Z,19.45
2018-10-12T21:29:41.638Z,19.41
2018-10-12T21:32:10.272Z,19.37
2018-10-12T21:34:38.896Z,19.37
2018-10-12T21:37:07.529Z,19.31
2018-10-12T21:39:36.408Z,19.24
2018-10-12T21:42:05.115Z,19.26
2018-10-12T21:44:33.686Z,19.19
2018-10-12T21:47:02.372Z,19.19
2018-10-12T21:49:30.972Z,19.21
2018-10-12T21:51:59.562Z,19.21
2018-10-12T21:54:28.530Z,19.18
2018-10-12T21:56:57.401Z,19.21
2018-10-12T21:59:26.099Z,19.22
2018-10-12T22:01:54.802Z,19.19
2018-10-12T22:04:23.968Z,19.17
2018-10-12T22:06:52.552Z,19.12
2018-10-12T22:09:21.211Z,19.15
2018-10-12T22:11:49.919Z,19.10
2018-10-12T22:14:18.976Z,19.02
2018-10-12T22:16:47.909Z,19.03
2018-10-12T22:19:16.593Z,18.99
2018-10-12T22:21:45.157Z,19.02
2018-10-12T22:24:13.856Z,18.98
2018-10-12T22:26:42.577Z,19.03
2018-10-12T22:29:11.167Z,19.02
2018-10-12T22:31:39.847Z,19.04
2018-10-12T22:34:08.552Z,18.95
2018-10-12T22:36:37.116Z,18.94
2018-10-12T22:39:08.128Z,18.84
2018-10-12T22:41:36.753Z,18.84
2018-10-12T22:44:05.350Z,18.91
2018-10-12T22:46:34.204Z,18.95
2018-10-12T22:49:03.462Z,18.88
2018-10-12T22:51:32.040Z,18.85
2018-10-12T22:54:01.140Z,18.83
2018-10-12T22:56:30.032Z,18.79
2018-10-12T22:58:58.598Z,18.74
2018-10-12T23:01:27.237Z,18.71
2018-10-12T23:03:55.845Z,18.71
2018-10-12T23:06:24.428Z,18.70
2018-10-12T23:08:53.696Z,18.71
2018-10-12T23:11:22.307Z,18.66
2018-10-12T23:13:52.032Z,18.64
2018-10-12T23:16:20.716Z,18.64
2018-10-12T23:18:49.440Z,18.64
2018-10-12T23:21:18.579Z,18.57
2018-10-12T23:23:48.029Z,18.49
2018-10-12T23:26:16.640Z,18.43
2018-10-12T23:28:45.226Z,18.41
2018-10-12T23:31:14.639Z,18.42
2018-10-12T23:33:54.331Z,18.43
2018-10-12T23:36:23.253Z,18.38
2018-10-12T23:38:52.004Z,18.36
2018-10-12T23:41:20.605Z,18.33
2018-10-12T23:43:49.211Z,18.29
2018-10-12T23:46:17.805Z,18.25
2018-10-12T23:48:46.380Z,18.19
2018-10-12T23:51:15.001Z,18.12
2018-10-12T23:53:43.570Z,18.06
2018-10-12T23:56:12.133Z,17.99
2018-10-12T23:58:40.772Z,17.94
